createdAt,value
2018-04-12T00:00:02.450Z,10.8
2018-04-12T00:15:02.761Z,10.8
2018-04-12T00:30:03.168Z,10.7
2018-04-12T00:45:02.529Z,10.7
2018-04-12T01:00:02.849Z,10.6
2018-04-12T01:15:03.225Z,10.6
2018-04-12T01:30:02.626Z,10.5
2018-04-12T01:45:02.905Z,10.4
2018-04-12T02:00:03.162Z,10.4
2018-04-12T02:15:02.677Z,10.4
2018-04-12T02:30:03.104Z,10.3
2018-04-12T02:45:06.096Z,10.2
2018-04-12T03:00:02.556Z,10.2
2018-04-12T03:15:02.912Z,10.1
2018-04-12T03:30:02.350Z,10.1
2018-04-12T03:45:02.735Z,10.1
2018-04-12T04:00:03.134Z,10
2018-04-12T04:15:02.526Z,9.9
2018-04-12T04:30:02.879Z,9.9
2018-04-12T04:45:03.217Z,9.9
2018-04-12T05:00:02.537Z,9.8
2018-04-12T05:15:02.785Z,9.8
2018-04-12T05:30:03.154Z,9.8
2018-04-12T05:45:02.612Z,9.8
2018-04-12T06:00:03.102Z,9.7
2018-04-12T06:15:02.497Z,9.7
2018-04-12T06:30:02.992Z,9.7
2018-04-12T06:45:02.300Z,9.6
2018-04-12T07:00:02.518Z,9.6
2018-04-12T07:15:02.979Z,9.6
2018-04-12T07:30:02.372Z,9.7
2018-04-12T07:45:02.782Z,9.7
2018-04-12T08:00:03.034Z,9.7
2018-04-12T08:15:02.378Z,9.7
2018-04-12T08:30:02.814Z,9.8
2018-04-12T08:45:03.092Z,9.8
2018-04-12T09:00:02.454Z,9.8
2018-04-12T09:15:02.782Z,9.9
2018-04-12T09:30:03.143Z,9.9
2018-04-12T09:45:02.610Z,9.9
2018-04-12T10:00:03.065Z,10
2018-04-12T10:15:02.464Z,10.1
2018-04-12T10:30:02.805Z,10.1
2018-04-12T10:45:03.123Z,10.1
2018-04-12T11:00:02.510Z,10.2
2018-04-12T11:15:02.720Z,10.2
2018-04-12T11:30:03.201Z,10.2
2018-04-12T11:45:02.584Z,10.3
2018-04-12T12:00:02.815Z,10.3
2018-04-12T12:15:03.086Z,10.4
2018-04-12T12:30:02.568Z,10.4
2018-04-12T12:45:02.902Z,10.4
2018-04-12T13:00:03.152Z,10.5
2018-04-12T13:15:02.595Z,10.5
2018-04-12T13:30:02.988Z,10.6
2018-04-12T13:45:02.291Z,10.6
2018-04-12T14:00:02.574Z,10.6
2018-04-12T14:15:02.835Z,10.6
2018-04-12T14:30:03.204Z,10.6
2018-04-12T14:45:02.514Z,10.6
2018-04-12T15:00:02.869Z,10.6
2018-04-12T15:15:03.199Z,10.7
2018-04-12T15:30:02.567Z,10.7
2018-04-12T15:45:02.807Z,10.7
2018-04-12T16:00:03.073Z,10.7
2018-04-12T16:15:02.276Z,10.8
2018-04-12T16:30:02.600Z,10.8
2018-04-12T16:45:02.892Z,10.8
2018-04-12T17:00:03.975Z,10.8
2018-04-12T17:15:02.254Z,10.8
2018-04-12T17:30:02.578Z,10.8
2018-04-12T17:45:02.877Z,10.8
2018-04-12T18:00:03.117Z,10.8
2018-04-12T18:15:02.489Z,10.8
2018-04-12T18:30:02.856Z,10.8
2018-04-12T18:45:03.112Z,10.8
2018-04-12T19:00:02.379Z,10.8
2018-04-12T19:15:02.605Z,10.7
2018-04-12T19:30:02.978Z,10.7
2018-04-12T19:45:02.203Z,10.6
2018-04-12T20:00:02.436Z,10.6
2018-04-12T20:15:02.704Z,10.6
2018-04-12T20:30:03.025Z,10.6
2018-04-12T20:45:02.266Z,10.6
2018-04-12T21:00:02.514Z,10.6
2018-04-12T21:15:02.811Z,10.5
2018-04-12T21:30:03.139Z,10.5
2018-04-12T21:45:02.483Z,10.4
2018-04-12T22:00:02.803Z,10.4
2018-04-12T22:15:03.093Z,10.4
2018-04-12T22:30:02.459Z,10.4
2018-04-12T22:45:02.787Z,10.4
2018-04-12T23:00:03.041Z,10.3
2018-04-12T23:15:02.388Z,10.2
2018-04-12T23:30:02.767Z,10.2
2018-04-12T23:45:03.095Z,10.2
